Flight Track Log - Related Links

Times and Time Zones

All times are in EDT time to prevent confusion due to time zone crossing. See the SKW5197 flight status page for this flight to view local times or setup timezone preferences in your user account.

Time Position Orientation Groundspeed Altitude Reporting Facility
EDT Latitude Longitude Course Direction KTS MPH feet Rate Location/Type
Sat 05:29:00 PM 39.1123 -77.8013 302° West  Level Estimated
Sat 05:30:00 PM 39.1670 -77.9154 302° West  Level Estimated
Sat 05:31:00 PM 39.2216 -78.0297 302° West  Level Estimated
Sat 05:32:00 PM 39.2761 -78.1442 302° West  Level Estimated
Sat 05:33:00 PM 39.3305 -78.2589 302° West  Level Estimated
Sat 05:34:00 PM 39.3848 -78.3737 301° West  Level Estimated
Sat 05:35:00 PM 39.4389 -78.4888 301° West  Level Estimated
Sat 05:36:00 PM 39.4930 -78.6040 301° West  Level Estimated
Sat 05:37:00 PM 39.5469 -78.7194 301° West  Level Estimated
Sat 05:38:00 PM 39.6007 -78.8349 301° West  Level Estimated
Sat 05:39:00 PM 39.6544 -78.9507 301° West  Level Estimated
Sat 05:40:00 PM 39.7080 -79.0666 301° West  Level Estimated
Sat 05:41:00 PM 39.7615 -79.1827 301° West  Level Estimated
Sat 05:42:00 PM 39.8148 -79.2990 301° West  Level Estimated
Sat 05:43:00 PM 39.8681 -79.4154 301° West  Level Estimated
Sat 05:44:00 PM 39.9212 -79.5321 301° West  Level Estimated
Sat 05:45:00 PM 39.9742 -79.6489 301° West  Level Estimated
Sat 05:46:00 PM 40.0271 -79.7659 301° West  Level Estimated
Sat 05:47:00 PM 40.0798 -79.8831 301° West  Level Estimated
Sat 05:48:00 PM 40.1325 -80.0005 300° West  Level Estimated
Sat 05:49:00 PM 40.1850 -80.1180 300° West  Level Estimated
Sat 05:50:00 PM 40.2374 -80.2358 300° West  Level Estimated
Sat 05:51:00 PM 40.2897 -80.3537 300° West  Level Estimated
Sat 05:52:00 PM 40.3419 -80.4718 300° West  Level Estimated
Sat 05:53:00 PM 40.3940 -80.5901 300° West  Level Estimated
Sat 05:54:00 PM 40.4459 -80.7085 300° West  Level Estimated
Sat 05:55:00 PM 40.4977 -80.8272 300° West  Level Estimated
Sat 05:56:00 PM 40.5494 -80.9460 300° West  Level Estimated
Sat 05:57:00 PM 40.6009 -81.0650 300° West  Level Estimated
Sat 05:58:00 PM 40.6524 -81.1842 300° West  Level Estimated
Sat 05:59:00 PM 40.7037 -81.3036 300° West  Level Estimated
Sat 06:00:00 PM 40.7549 -81.4232 300° West  Level Estimated
Sat 06:01:00 PM 40.8060 -81.5429 299° West  Level Estimated
Sat 06:02:00 PM 40.8569 -81.6628 299° West  Level Estimated
Sat 06:03:00 PM 40.9078 -81.7830 299° West  Level Estimated
Sat 06:04:00 PM 40.9585 -81.9033 299° West  Level Estimated
Sat 06:05:00 PM 41.0091 -82.0238 299° West  Level Estimated
Sat 06:06:00 PM 41.0595 -82.1444 299° West  Level Estimated
Sat 06:07:00 PM 41.1098 -82.2653 299° West  Level Estimated
Sat 06:08:00 PM 41.1600 -82.3863 299° West  Level Estimated
Sat 06:09:00 PM 41.2101 -82.5076 299° West  Level Estimated
Sat 06:10:00 PM 41.2601 -82.6290 299° West  Level Estimated
Sat 06:11:00 PM 41.3099 -82.7506 299° West  Level Estimated
Sat 06:12:00 PM 41.3596 -82.8723 299° West  Level Estimated
Sat 06:13:00 PM 41.4091 -82.9943 298° West  Level Estimated
Sat 06:14:00 PM 41.4586 -83.1165 298° West  Level Estimated
Sat 06:15:00 PM 41.5079 -83.2388 298° West  Level Estimated
Sat 06:16:00 PM 41.5570 -83.3613 298° West  Level Estimated
Sat 06:17:00 PM 41.6061 -83.4840 298° West  Level Estimated
Sat 06:18:00 PM 41.6550 -83.6069 298° West  Level Estimated
Sat 06:19:00 PM 41.7038 -83.7300 298° West  Level Estimated
Sat 06:20:00 PM 41.7524 -83.8533 298° West  Level Estimated
Sat 06:21:00 PM 41.8009 -83.9768 298° West  Level Estimated
Sat 06:22:00 PM 41.8493 -84.1004 298° West  Level Estimated
Sat 06:23:00 PM 41.8976 -84.2243 298° West  Level Estimated
Sat 06:24:00 PM 41.9457 -84.3483 298° West  Level Estimated
Sat 06:25:00 PM 41.9937 -84.4725 297° West  Level Estimated
Sat 06:26:00 PM 42.0415 -84.5969 297° West  Level Estimated
Sat 06:27:00 PM 42.0892 -84.7215 297° West  Level Estimated
Sat 06:28:00 PM 42.1368 -84.8462 297° West  Level Estimated
Sat 06:29:00 PM 42.1843 -84.9712 297° West  Level Estimated
Sat 06:30:00 PM 42.2316 -85.0963 297° West  Level Estimated
Sat 06:31:00 PM 42.2788 -85.2217 297° West  Level Estimated
Sat 06:32:00 PM 42.3258 -85.3472 297° West  Level Estimated
Sat 06:33:00 PM 42.3727 -85.4729 297° West  Level Estimated
Sat 06:34:00 PM 42.4195 -85.5988 297° West  Level Estimated
Sat 06:35:00 PM 42.4661 -85.7249 297° West  Level Estimated
Sat 06:36:00 PM 42.5126 -85.8512 297° West  Level Estimated
Sat 06:37:00 PM 42.5589 -85.9776 296° West  Level Estimated
Sat 06:38:00 PM 42.6051 -86.1043 296° West  Level Estimated
Sat 06:39:00 PM 42.6512 -86.2311 296° West  Level Estimated
Sat 06:40:00 PM 42.6972 -86.3581 296° West  Level Estimated
Sat 06:41:00 PM 42.7429 -86.4853 296° West  Level Estimated
Sat 06:42:00 PM 42.7886 -86.6127 296° West  Level Estimated
Sat 06:43:00 PM 42.8341 -86.7403 296° West  Level Estimated
Sat 06:44:00 PM 42.8795 -86.8681 296° West  Level Estimated
Sat 06:45:00 PM 42.9247 -86.9960 296° West  Level Estimated
Sat 06:46:00 PM 42.9698 -87.1242 296° West  Level Estimated
Sat 06:47:00 PM 43.0147 -87.2525 296° West  Level Estimated
Sat 06:48:00 PM 43.0595 -87.3811 296° West  Level Estimated
Sat 06:49:00 PM 43.1041 -87.5098 295° West  Level Estimated
Sat 06:50:00 PM 43.1486 -87.6387 295° West  Level Estimated
Sat 06:51:00 PM 43.1930 -87.7678 295° West  Level Estimated
Sat 06:52:00 PM 43.2372 -87.8970 295° West  Level Estimated
Sat 06:53:00 PM 43.2813 -88.0265 295° West  Level Estimated
Sat 06:54:00 PM 43.3252 -88.1561 295° West  Level Estimated
Sat 06:55:00 PM 43.3690 -88.2860 295° West  Level Estimated
Sat 06:56:00 PM 43.4126 -88.4160 295° West  Level Estimated
Sat 06:57:00 PM 43.4561 -88.5462 295° West  Level Estimated
Sat 06:58:00 PM 43.4994 -88.6766 295° West  Level Estimated
Sat 06:59:00 PM 43.5426 -88.8072 295° West  Level Estimated
Sat 07:00:00 PM 43.5857 -88.9380 294° West  Level Estimated
Sat 07:01:00 PM 43.6285 -89.0689 294° West  Level Estimated
Sat 07:02:00 PM 43.6713 -89.2001 294° West  Level Estimated
Sat 07:03:00 PM 43.7139 -89.3314 294° West  Level Estimated
Sat 07:04:00 PM 43.7563 -89.4629 294° West  Level Estimated
Sat 07:05:00 PM 43.7986 -89.5946 294° West  Level Estimated
Sat 07:06:00 PM 43.8407 -89.7265 294° West  Level Estimated
Sat 07:07:00 PM 43.8827 -89.8586 294° West  Level Estimated
Sat 07:08:00 PM 43.9245 -89.9908 294° West  Level Estimated
Sat 07:09:00 PM 43.9662 -90.1233 294° West  Level Estimated
Sat 07:10:00 PM 44.0077 -90.2559 294° West  Level Estimated
Sat 07:11:00 PM 44.0491 -90.3887 293° West  Level Estimated
Sat 07:12:00 PM 44.0903 -90.5217 293° West  Level Estimated
Sat 07:13:00 PM 44.1314 -90.6549 293° West  Level Estimated
Sat 07:14:00 PM 44.1723 -90.7883 293° West  Level Estimated
Sat 07:15:00 PM 44.2130 -90.9219 293° West  Level Estimated
Sat 07:16:00 PM 44.2536 -91.0556 293° West  Level Estimated
Sat 07:17:00 PM 44.2941 -91.1895 293° West  Level Estimated
Sat 07:18:00 PM 44.3344 -91.3236 293° West  Level Estimated
Sat 07:19:00 PM 44.3745 -91.4579 293° West  Level Estimated
Sat 07:20:00 PM 44.4144 -91.5924 293° West  Level Estimated
Sat 07:21:00 PM 44.4543 -91.7271 293° West  Level Estimated
Sat 07:22:00 PM 44.4939 -91.8619 292° West  Level Estimated
Sat 07:23:00 PM 44.5334 -91.9970 292° West  Level Estimated
Sat 07:24:00 PM 44.5727 -92.1322 292° West  Level Estimated
Sat 07:25:00 PM 44.6119 -92.2676 292° West  Level Estimated
Sat 07:26:00 PM 44.6509 -92.4032 292° West  Level Estimated
Sat 07:27:00 PM 44.6898 -92.5389 292° West  Level Estimated
Sat 07:28:00 PM 44.7284 -92.6749 292° West  Level Estimated
Sat 07:29:00 PM 44.7670 -92.8110 292° West  Level Estimated
Sat 07:30:00 PM 44.8053 -92.9473 292° West  Level Estimated
Sat 07:31:00 PM 44.8436 -93.0837 292° West  Level Estimated
Sat 07:32:00 PM 44.8816 -93.2204 291° West  Level Estimated
Sat 07:33:00 PM 44.8820 -93.2218 292° West  Level Estimated
Sat 07:34:00 PM 44.8820 -93.2218 35° Northeast  Level Estimated
Sat 07:35:00 PM 44.8820 -93.2218 35° Northeast  Level Estimated
Sat 07:36:00 PM 44.8820 -93.2218 35° Northeast  Level Estimated
Sat 07:37:00 PM 44.8820 -93.2218 35° Northeast  Level Estimated
Sat 07:38:00 PM 44.8820 -93.2218 35° Northeast  Level Estimated
Sat 07:39:00 PM 44.8820 -93.2218 35° Northeast  Level Estimated
Sat 07:40:00 PM 44.8820 -93.2218 35° Northeast  Level Estimated
Sat 07:41:00 PM 44.8820 -93.2218 35° Northeast  Level Estimated
Sat 07:42:00 PM 44.8820 -93.2218 35° Northeast  Level Estimated

Login

Don't have an account? Register now (free) for customized features, flight alerts, and more!